sensor_id;sensor_type;location;lat;lon;timestamp;P1;durP1;ratioP1;P2;durP2;ratioP2
56419;SDS011;42323;52.170;7.538;2022-11-15T00:00:56;12.90;;;7.22;;
56419;SDS011;42323;52.170;7.538;2022-11-15T00:03:24;13.25;;;7.10;;
56419;SDS011;42323;52.170;7.538;2022-11-15T00:05:52;11.38;;;7.13;;
56419;SDS011;42323;52.170;7.538;2022-11-15T00:08:19;12.27;;;6.78;;
56419;SDS011;42323;52.170;7.538;2022-11-15T00:10:56;13.32;;;7.05;;
56419;SDS011;42323;52.170;7.538;2022-11-15T00:13:23;13.75;;;7.60;;
56419;SDS011;42323;52.170;7.538;2022-11-15T00:15:51;13.32;;;7.50;;
56419;SDS011;42323;52.170;7.538;2022-11-15T00:18:18;13.63;;;7.43;;
56419;SDS011;42323;52.170;7.538;2022-11-15T00:20:45;10.60;;;6.03;;
56419;SDS011;42323;52.170;7.538;2022-11-15T00:23:12;11.88;;;6.70;;
56419;SDS011;42323;52.170;7.538;2022-11-15T00:25:39;16.15;;;7.22;;
56419;SDS011;42323;52.170;7.538;2022-11-15T00:28:06;13.38;;;7.03;;
56419;SDS011;42323;52.170;7.538;2022-11-15T00:30:33;11.75;;;6.45;;
56419;SDS011;42323;52.170;7.538;2022-11-15T00:33:04;13.77;;;6.80;;
56419;SDS011;42323;52.170;7.538;2022-11-15T00:35:32;14.25;;;6.50;;
56419;SDS011;42323;52.170;7.538;2022-11-15T00:38:01;15.73;;;7.03;;
56419;SDS011;42323;52.170;7.538;2022-11-15T00:40:28;15.15;;;7.28;;
56419;SDS011;42323;52.170;7.538;2022-11-15T00:42:55;12.23;;;6.85;;
56419;SDS011;42323;52.170;7.538;2022-11-15T00:45:23;12.32;;;7.25;;
56419;SDS011;42323;52.170;7.538;2022-11-15T00:47:50;12.95;;;6.38;;
56419;SDS011;42323;52.170;7.538;2022-11-15T00:50:17;14.05;;;6.93;;
56419;SDS011;42323;52.170;7.538;2022-11-15T00:52:43;11.73;;;6.43;;
56419;SDS011;42323;52.170;7.538;2022-11-15T00:55:17;12.30;;;6.88;;
56419;SDS011;42323;52.170;7.538;2022-11-15T00:57:45;11.02;;;6.45;;
56419;SDS011;42323;52.170;7.538;2022-11-15T01:00:13;13.68;;;7.88;;
56419;SDS011;42323;52.170;7.538;2022-11-15T01:02:40;11.82;;;6.93;;
56419;SDS011;42323;52.170;7.538;2022-11-15T01:05:07;12.40;;;6.68;;
56419;SDS011;42323;52.170;7.538;2022-11-15T01:07:34;10.10;;;6.65;;
56419;SDS011;42323;52.170;7.538;2022-11-15T01:10:01;13.10;;;7.13;;
56419;SDS011;42323;52.170;7.538;2022-11-15T01:12:28;10.80;;;6.20;;
56419;SDS011;42323;52.170;7.538;2022-11-15T01:14:54;11.25;;;6.35;;
56419;SDS011;42323;52.170;7.538;2022-11-15T01:17:21;12.65;;;6.25;;
56419;SDS011;42323;52.170;7.538;2022-11-15T01:19:48;10.88;;;6.30;;
56419;SDS011;42323;52.170;7.538;2022-11-15T01:22:15;9.65;;;5.50;;
56419;SDS011;42323;52.170;7.538;2022-11-15T01:24:42;10.38;;;6.18;;
56419;SDS011;42323;52.170;7.538;2022-11-15T01:27:08;9.63;;;5.88;;
56419;SDS011;42323;52.170;7.538;2022-11-15T01:29:35;12.10;;;6.55;;
56419;SDS011;42323;52.170;7.538;2022-11-15T01:32:02;10.35;;;5.93;;
56419;SDS011;42323;52.170;7.538;2022-11-15T01:34:29;12.45;;;7.07;;
56419;SDS011;42323;52.170;7.538;2022-11-15T01:36:56;9.57;;;5.45;;
56419;SDS011;42323;52.170;7.538;2022-11-15T01:39:22;9.02;;;5.25;;
56419;SDS011;42323;52.170;7.538;2022-11-15T01:41:49;11.63;;;5.57;;
56419;SDS011;42323;52.170;7.538;2022-11-15T01:47:02;10.13;;;5.95;;
56419;SDS011;42323;52.170;7.538;2022-11-15T01:49:34;9.40;;;5.93;;
56419;SDS011;42323;52.170;7.538;2022-11-15T01:52:05;10.70;;;5.90;;
56419;SDS011;42323;52.170;7.538;2022-11-15T01:54:35;11.35;;;5.97;;
56419;SDS011;42323;52.170;7.538;2022-11-15T01:57:03;11.00;;;6.13;;
56419;SDS011;42323;52.170;7.538;2022-11-15T01:59:34;9.52;;;5.55;;
56419;SDS011;42323;52.170;7.538;2022-11-15T02:02:05;9.80;;;6.05;;
56419;SDS011;42323;52.170;7.538;2022-11-15T02:04:38;11.02;;;6.57;;
56419;SDS011;42323;52.170;7.538;2022-11-15T02:07:08;8.30;;;5.57;;
56419;SDS011;42323;52.170;7.538;2022-11-15T02:09:37;10.73;;;6.45;;
56419;SDS011;42323;52.170;7.538;2022-11-15T02:12:05;10.50;;;5.90;;
56419;SDS011;42323;52.170;7.538;2022-11-15T02:14:35;12.07;;;6.10;;
56419;SDS011;42323;52.170;7.538;2022-11-15T02:17:09;9.60;;;5.68;;
56419;SDS011;42323;52.170;7.538;2022-11-15T02:28:16;10.38;;;6.47;;
56419;SDS011;42323;52.170;7.538;2022-11-15T02:33:41;11.02;;;6.75;;
56419;SDS011;42323;52.170;7.538;2022-11-15T02:36:39;9.60;;;5.43;;
56419;SDS011;42323;52.170;7.538;2022-11-15T02:39:34;10.18;;;6.25;;
56419;SDS011;42323;52.170;7.538;2022-11-15T02:42:10;10.15;;;5.85;;
56419;SDS011;42323;52.170;7.538;2022-11-15T02:45:01;9.35;;;5.32;;
56419;SDS011;42323;52.170;7.538;2022-11-15T02:47:32;10.48;;;6.32;;
56419;SDS011;42323;52.170;7.538;2022-11-15T02:50:07;10.25;;;6.15;;
56419;SDS011;42323;52.170;7.538;2022-11-15T02:52:36;9.55;;;5.70;;
56419;SDS011;42323;52.170;7.538;2022-11-15T02:55:02;10.68;;;5.82;;
56419;SDS011;42323;52.170;7.538;2022-11-15T02:57:41;12.65;;;6.82;;
56419;SDS011;42323;52.170;7.538;2022-11-15T03:00:18;10.48;;;6.20;;
56419;SDS011;42323;52.170;7.538;2022-11-15T03:11:11;9.85;;;5.93;;
56419;SDS011;42323;52.170;7.538;2022-11-15T03:18:52;10.45;;;5.72;;
56419;SDS011;42323;52.170;7.538;2022-11-15T03:21:26;12.10;;;6.80;;
56419;SDS011;42323;52.170;7.538;2022-11-15T03:23:54;7.22;;;5.25;;
56419;SDS011;42323;52.170;7.538;2022-11-15T03:26:26;9.50;;;5.45;;
56419;SDS011;42323;52.170;7.538;2022-11-15T03:28:57;10.40;;;6.20;;
56419;SDS011;42323;52.170;7.538;2022-11-15T03:31:28;11.70;;;6.95;;
56419;SDS011;42323;52.170;7.538;2022-11-15T03:34:25;9.65;;;5.50;;
56419;SDS011;42323;52.170;7.538;2022-11-15T03:36:56;11.15;;;5.95;;
56419;SDS011;42323;52.170;7.538;2022-11-15T03:39:23;8.75;;;6.00;;
56419;SDS011;42323;52.170;7.538;2022-11-15T03:44:52;7.80;;;5.20;;
56419;SDS011;42323;52.170;7.538;2022-11-15T03:47:35;8.88;;;6.00;;
56419;SDS011;42323;52.170;7.538;2022-11-15T03:50:12;10.07;;;5.13;;
56419;SDS011;42323;52.170;7.538;2022-11-15T03:52:41;8.85;;;5.93;;
56419;SDS011;42323;52.170;7.538;2022-11-15T03:55:13;7.70;;;4.93;;
56419;SDS011;42323;52.170;7.538;2022-11-15T03:57:44;8.98;;;5.35;;
56419;SDS011;42323;52.170;7.538;2022-11-15T04:00:11;10.07;;;5.75;;
56419;SDS011;42323;52.170;7.538;2022-11-15T04:02:38;8.07;;;5.55;;
56419;SDS011;42323;52.170;7.538;2022-11-15T04:05:05;11.23;;;5.97;;
56419;SDS011;42323;52.170;7.538;2022-11-15T04:07:32;10.02;;;5.55;;
56419;SDS011;42323;52.170;7.538;2022-11-15T04:09:59;11.48;;;6.30;;
56419;SDS011;42323;52.170;7.538;2022-11-15T04:12:30;11.48;;;6.10;;
56419;SDS011;42323;52.170;7.538;2022-11-15T04:17:39;9.25;;;6.10;;
56419;SDS011;42323;52.170;7.538;2022-11-15T04:20:17;9.10;;;5.22;;
56419;SDS011;42323;52.170;7.538;2022-11-15T04:23:11;8.70;;;5.85;;
56419;SDS011;42323;52.170;7.538;2022-11-15T04:26:01;9.93;;;6.05;;
56419;SDS011;42323;52.170;7.538;2022-11-15T04:28:30;11.85;;;6.65;;
56419;SDS011;42323;52.170;7.538;2022-11-15T04:30:57;9.32;;;5.45;;
56419;SDS011;42323;52.170;7.538;2022-11-15T04:33:23;8.25;;;5.57;;
56419;SDS011;42323;52.170;7.538;2022-11-15T04:35:50;8.70;;;4.90;;
56419;SDS011;42323;52.170;7.538;2022-11-15T04:38:36;11.55;;;5.82;;
56419;SDS011;42323;52.170;7.538;2022-11-15T04:41:03;10.50;;;6.43;;
56419;SDS011;42323;52.170;7.538;2022-11-15T04:43:29;8.52;;;4.78;;
56419;SDS011;42323;52.170;7.538;2022-11-15T04:45:57;9.88;;;4.93;;
56419;SDS011;42323;52.170;7.538;2022-11-15T04:48:24;8.85;;;5.28;;
56419;SDS011;42323;52.170;7.538;2022-11-15T04:50:50;11.10;;;6.10;;
56419;SDS011;42323;52.170;7.538;2022-11-15T04:53:17;9.25;;;5.55;;
56419;SDS011;42323;52.170;7.538;2022-11-15T04:55:45;8.32;;;5.40;;
56419;SDS011;42323;52.170;7.538;2022-11-15T04:58:12;10.88;;;6.00;;
56419;SDS011;42323;52.170;7.538;2022-11-15T05:00:39;9.90;;;6.22;;
56419;SDS011;42323;52.170;7.538;2022-11-15T05:03:08;8.05;;;5.60;;
56419;SDS011;42323;52.170;7.538;2022-11-15T05:05:54;7.88;;;5.22;;
56419;SDS011;42323;52.170;7.538;2022-11-15T05:08:25;8.85;;;5.68;;
56419;SDS011;42323;52.170;7.538;2022-11-15T05:10:52;8.80;;;5.55;;
56419;SDS011;42323;52.170;7.538;2022-11-15T05:13:19;8.48;;;5.55;;
56419;SDS011;42323;52.170;7.538;2022-11-15T05:15:46;8.20;;;5.55;;
56419;SDS011;42323;52.170;7.538;2022-11-15T05:18:13;9.27;;;5.63;;
56419;SDS011;42323;52.170;7.538;2022-11-15T05:20:45;8.60;;;4.90;;
56419;SDS011;42323;52.170;7.538;2022-11-15T05:23:12;8.95;;;5.25;;
56419;SDS011;42323;52.170;7.538;2022-11-15T05:25:39;12.07;;;6.78;;
56419;SDS011;42323;52.170;7.538;2022-11-15T05:28:06;8.35;;;5.50;;
56419;SDS011;42323;52.170;7.538;2022-11-15T05:30:33;8.82;;;5.55;;
56419;SDS011;42323;52.170;7.538;2022-11-15T05:32:59;9.45;;;6.00;;
56419;SDS011;42323;52.170;7.538;2022-11-15T05:35:31;8.43;;;5.05;;
56419;SDS011;42323;52.170;7.538;2022-11-15T05:38:04;11.40;;;6.15;;
56419;SDS011;42323;52.170;7.538;2022-11-15T05:40:31;12.35;;;5.25;;
56419;SDS011;42323;52.170;7.538;2022-11-15T05:43:00;8.90;;;5.10;;
56419;SDS011;42323;52.170;7.538;2022-11-15T05:45:28;8.70;;;5.28;;
56419;SDS011;42323;52.170;7.538;2022-11-15T05:47:55;9.93;;;5.78;;
56419;SDS011;42323;52.170;7.538;2022-11-15T05:50:25;9.20;;;6.10;;
56419;SDS011;42323;52.170;7.538;2022-11-15T05:52:52;9.98;;;6.07;;
56419;SDS011;42323;52.170;7.538;2022-11-15T05:55:26;10.15;;;5.63;;
56419;SDS011;42323;52.170;7.538;2022-11-15T05:57:53;8.13;;;5.55;;
56419;SDS011;42323;52.170;7.538;2022-11-15T06:00:19;9.00;;;5.47;;
56419;SDS011;42323;52.170;7.538;2022-11-15T06:02:47;9.70;;;5.55;;
56419;SDS011;42323;52.170;7.538;2022-11-15T06:05:14;13.32;;;6.47;;
56419;SDS011;42323;52.170;7.538;2022-11-15T06:07:41;9.77;;;5.78;;
56419;SDS011;42323;52.170;7.538;2022-11-15T06:10:08;7.32;;;5.35;;
56419;SDS011;42323;52.170;7.538;2022-11-15T06:12:37;9.43;;;5.28;;
56419;SDS011;42323;52.170;7.538;2022-11-15T06:15:04;12.57;;;5.82;;
56419;SDS011;42323;52.170;7.538;2022-11-15T06:17:31;8.40;;;5.50;;
56419;SDS011;42323;52.170;7.538;2022-11-15T06:19:58;9.85;;;5.90;;
56419;SDS011;42323;52.170;7.538;2022-11-15T06:22:25;9.10;;;5.55;;
56419;SDS011;42323;52.170;7.538;2022-11-15T06:24:52;7.78;;;4.88;;
56419;SDS011;42323;52.170;7.538;2022-11-15T06:27:18;11.35;;;5.43;;
56419;SDS011;42323;52.170;7.538;2022-11-15T06:29:45;11.73;;;5.38;;
56419;SDS011;42323;52.170;7.538;2022-11-15T06:32:12;8.80;;;5.25;;
56419;SDS011;42323;52.170;7.538;2022-11-15T06:34:38;9.38;;;5.88;;
56419;SDS011;42323;52.170;7.538;2022-11-15T06:37:05;10.15;;;5.88;;
56419;SDS011;42323;52.170;7.538;2022-11-15T06:39:33;9.43;;;5.50;;
56419;SDS011;42323;52.170;7.538;2022-11-15T06:42:00;10.18;;;5.65;;
56419;SDS011;42323;52.170;7.538;2022-11-15T06:44:26;8.68;;;5.07;;
56419;SDS011;42323;52.170;7.538;2022-11-15T06:46:53;9.23;;;5.57;;
56419;SDS011;42323;52.170;7.538;2022-11-15T06:49:23;10.10;;;6.00;;
56419;SDS011;42323;52.170;7.538;2022-11-15T06:51:50;10.82;;;5.85;;
56419;SDS011;42323;52.170;7.538;2022-11-15T06:54:17;8.48;;;5.78;;
56419;SDS011;42323;52.170;7.538;2022-11-15T06:56:44;10.38;;;5.60;;
56419;SDS011;42323;52.170;7.538;2022-11-15T06:59:10;12.65;;;5.93;;
56419;SDS011;42323;52.170;7.538;2022-11-15T07:01:38;8.15;;;4.90;;
56419;SDS011;42323;52.170;7.538;2022-11-15T07:04:04;9.30;;;5.40;;
56419;SDS011;42323;52.170;7.538;2022-11-15T07:06:31;9.43;;;5.28;;
56419;SDS011;42323;52.170;7.538;2022-11-15T07:08:58;10.45;;;5.32;;
56419;SDS011;42323;52.170;7.538;2022-11-15T07:11:32;8.32;;;5.28;;
56419;SDS011;42323;52.170;7.538;2022-11-15T07:14:00;11.65;;;7.07;;
56419;SDS011;42323;52.170;7.538;2022-11-15T07:16:32;9.65;;;5.35;;
56419;SDS011;42323;52.170;7.538;2022-11-15T07:19:00;10.70;;;5.25;;
56419;SDS011;42323;52.170;7.538;2022-11-15T07:21:26;8.55;;;5.40;;
56419;SDS011;42323;52.170;7.538;2022-11-15T07:23:53;7.47;;;5.30;;
56419;SDS011;42323;52.170;7.538;2022-11-15T07:26:20;10.98;;;5.95;;
56419;SDS011;42323;52.170;7.538;2022-11-15T07:28:47;11.15;;;6.45;;
56419;SDS011;42323;52.170;7.538;2022-11-15T07:31:14;10.38;;;5.78;;
56419;SDS011;42323;52.170;7.538;2022-11-15T07:33:41;11.02;;;5.88;;
56419;SDS011;42323;52.170;7.538;2022-11-15T07:36:08;10.00;;;5.95;;
56419;SDS011;42323;52.170;7.538;2022-11-15T07:38:35;9.43;;;6.10;;
56419;SDS011;42323;52.170;7.538;2022-11-15T07:41:08;12.18;;;6.70;;
56419;SDS011;42323;52.170;7.538;2022-11-15T07:43:35;10.13;;;6.40;;
56419;SDS011;42323;52.170;7.538;2022-11-15T07:46:05;11.07;;;6.20;;
56419;SDS011;42323;52.170;7.538;2022-11-15T07:48:36;11.57;;;6.68;;
56419;SDS011;42323;52.170;7.538;2022-11-15T07:51:13;10.07;;;6.00;;
56419;SDS011;42323;52.170;7.538;2022-11-15T08:01:09;7.85;;;5.55;;
56419;SDS011;42323;52.170;7.538;2022-11-15T08:03:37;9.88;;;6.00;;
56419;SDS011;42323;52.170;7.538;2022-11-15T08:06:04;12.45;;;6.82;;
56419;SDS011;42323;52.170;7.538;2022-11-15T08:08:31;11.07;;;6.82;;
56419;SDS011;42323;52.170;7.538;2022-11-15T08:10:58;11.07;;;7.22;;
56419;SDS011;42323;52.170;7.538;2022-11-15T08:13:25;11.05;;;6.70;;
56419;SDS011;42323;52.170;7.538;2022-11-15T08:15:56;12.38;;;7.05;;
56419;SDS011;42323;52.170;7.538;2022-11-15T08:18:24;9.23;;;5.75;;
56419;SDS011;42323;52.170;7.538;2022-11-15T08:20:51;10.00;;;6.47;;
56419;SDS011;42323;52.170;7.538;2022-11-15T08:23:17;10.85;;;6.10;;
56419;SDS011;42323;52.170;7.538;2022-11-15T08:25:44;11.13;;;6.95;;
56419;SDS011;42323;52.170;7.538;2022-11-15T08:28:11;11.35;;;6.45;;
56419;SDS011;42323;52.170;7.538;2022-11-15T08:30:39;10.00;;;5.63;;
56419;SDS011;42323;52.170;7.538;2022-11-15T08:33:14;9.60;;;5.95;;
56419;SDS011;42323;52.170;7.538;2022-11-15T08:35:41;11.60;;;5.82;;
56419;SDS011;42323;52.170;7.538;2022-11-15T08:38:10;10.55;;;5.43;;
56419;SDS011;42323;52.170;7.538;2022-11-15T08:40:36;7.65;;;5.35;;
56419;SDS011;42323;52.170;7.538;2022-11-15T08:43:07;10.05;;;6.32;;
56419;SDS011;42323;52.170;7.538;2022-11-15T08:45:34;9.27;;;5.30;;
56419;SDS011;42323;52.170;7.538;2022-11-15T08:48:02;10.68;;;5.82;;
56419;SDS011;42323;52.170;7.538;2022-11-15T08:50:29;8.60;;;5.47;;
56419;SDS011;42323;52.170;7.538;2022-11-15T08:52:56;8.02;;;5.00;;
56419;SDS011;42323;52.170;7.538;2022-11-15T08:55:23;9.55;;;5.28;;
56419;SDS011;42323;52.170;7.538;2022-11-15T08:57:50;8.80;;;5.32;;
56419;SDS011;42323;52.170;7.538;2022-11-15T09:00:17;10.02;;;5.45;;
56419;SDS011;42323;52.170;7.538;2022-11-15T09:02:46;10.15;;;5.68;;
56419;SDS011;42323;52.170;7.538;2022-11-15T09:05:13;10.57;;;5.75;;
56419;SDS011;42323;52.170;7.538;2022-11-15T09:07:41;10.50;;;5.90;;
56419;SDS011;42323;52.170;7.538;2022-11-15T09:10:08;10.20;;;5.70;;
56419;SDS011;42323;52.170;7.538;2022-11-15T09:12:35;8.27;;;5.70;;
56419;SDS011;42323;52.170;7.538;2022-11-15T09:15:02;7.68;;;4.78;;
56419;SDS011;42323;52.170;7.538;2022-11-15T09:17:30;8.05;;;4.32;;
56419;SDS011;42323;52.170;7.538;2022-11-15T09:19:56;6.38;;;4.18;;
56419;SDS011;42323;52.170;7.538;2022-11-15T09:22:23;5.68;;;4.20;;
56419;SDS011;42323;52.170;7.538;2022-11-15T09:24:50;7.25;;;4.30;;
56419;SDS011;42323;52.170;7.538;2022-11-15T09:27:17;9.02;;;4.60;;
56419;SDS011;42323;52.170;7.538;2022-11-15T09:29:43;7.88;;;4.28;;
56419;SDS011;42323;52.170;7.538;2022-11-15T09:32:10;6.35;;;3.55;;
56419;SDS011;42323;52.170;7.538;2022-11-15T09:34:37;5.78;;;3.58;;
56419;SDS011;42323;52.170;7.538;2022-11-15T09:37:03;4.78;;;3.35;;
56419;SDS011;42323;52.170;7.538;2022-11-15T09:39:30;6.82;;;3.55;;
56419;SDS011;42323;52.170;7.538;2022-11-15T09:47:39;4.78;;;2.95;;
56419;SDS011;42323;52.170;7.538;2022-11-15T09:50:13;4.05;;;2.80;;
56419;SDS011;42323;52.170;7.538;2022-11-15T09:52:43;4.40;;;2.75;;
56419;SDS011;42323;52.170;7.538;2022-11-15T09:55:11;5.43;;;2.20;;
56419;SDS011;42323;52.170;7.538;2022-11-15T09:57:57;3.72;;;2.28;;
56419;SDS011;42323;52.170;7.538;2022-11-15T10:00:35;3.00;;;2.20;;
56419;SDS011;42323;52.170;7.538;2022-11-15T10:03:19;4.97;;;2.58;;
56419;SDS011;42323;52.170;7.538;2022-11-15T10:08:40;4.63;;;2.08;;
56419;SDS011;42323;52.170;7.538;2022-11-15T10:11:19;3.47;;;1.88;;
56419;SDS011;42323;52.170;7.538;2022-11-15T10:14:22;2.65;;;2.10;;
56419;SDS011;42323;52.170;7.538;2022-11-15T10:22:36;4.00;;;2.35;;
56419;SDS011;42323;52.170;7.538;2022-11-15T10:27:35;2.75;;;1.77;;
56419;SDS011;42323;52.170;7.538;2022-11-15T10:30:03;2.63;;;1.63;;
56419;SDS011;42323;52.170;7.538;2022-11-15T10:32:36;5.13;;;1.40;;
56419;SDS011;42323;52.170;7.538;2022-11-15T10:35:15;1.48;;;1.13;;
56419;SDS011;42323;52.170;7.538;2022-11-15T10:37:45;1.20;;;1.10;;
56419;SDS011;42323;52.170;7.538;2022-11-15T10:40:19;3.22;;;1.23;;
56419;SDS011;42323;52.170;7.538;2022-11-15T10:43:12;2.35;;;1.45;;
56419;SDS011;42323;52.170;7.538;2022-11-15T10:45:41;1.10;;;1.02;;
56419;SDS011;42323;52.170;7.538;2022-11-15T10:50:42;1.35;;;1.10;;
56419;SDS011;42323;52.170;7.538;2022-11-15T10:53:38;1.10;;;1.00;;
56419;SDS011;42323;52.170;7.538;2022-11-15T10:56:12;1.30;;;1.05;;
56419;SDS011;42323;52.170;7.538;2022-11-15T10:58:50;1.83;;;1.10;;
56419;SDS011;42323;52.170;7.538;2022-11-15T11:01:23;2.50;;;1.30;;
56419;SDS011;42323;52.170;7.538;2022-11-15T11:03:59;1.45;;;0.90;;
56419;SDS011;42323;52.170;7.538;2022-11-15T11:06:28;1.80;;;1.20;;
56419;SDS011;42323;52.170;7.538;2022-11-15T11:08:59;1.42;;;1.05;;
56419;SDS011;42323;52.170;7.538;2022-11-15T11:14:11;1.73;;;1.20;;
56419;SDS011;42323;52.170;7.538;2022-11-15T11:16:44;2.17;;;1.20;;
56419;SDS011;42323;52.170;7.538;2022-11-15T11:24:39;2.90;;;1.58;;
56419;SDS011;42323;52.170;7.538;2022-11-15T11:30:02;4.00;;;1.60;;
56419;SDS011;42323;52.170;7.538;2022-11-15T11:47:29;1.98;;;1.40;;
56419;SDS011;42323;52.170;7.538;2022-11-15T11:50:17;1.55;;;1.27;;
56419;SDS011;42323;52.170;7.538;2022-11-15T11:55:36;1.98;;;1.52;;
56419;SDS011;42323;52.170;7.538;2022-11-15T12:00:51;3.17;;;1.50;;
56419;SDS011;42323;52.170;7.538;2022-11-15T12:05:54;1.10;;;1.00;;
56419;SDS011;42323;52.170;7.538;2022-11-15T12:08:44;2.28;;;1.13;;
56419;SDS011;42323;52.170;7.538;2022-11-15T12:11:17;1.05;;;0.90;;
56419;SDS011;42323;52.170;7.538;2022-11-15T12:13:50;1.73;;;0.90;;
56419;SDS011;42323;52.170;7.538;2022-11-15T12:16:26;2.20;;;0.90;;
56419;SDS011;42323;52.170;7.538;2022-11-15T12:18:55;1.50;;;0.93;;
56419;SDS011;42323;52.170;7.538;2022-11-15T12:27:39;1.10;;;0.90;;
56419;SDS011;42323;52.170;7.538;2022-11-15T12:30:14;1.80;;;0.90;;
56419;SDS011;42323;52.170;7.538;2022-11-15T12:32:53;3.22;;;0.98;;
56419;SDS011;42323;52.170;7.538;2022-11-15T12:37:56;1.50;;;0.98;;
56419;SDS011;42323;52.170;7.538;2022-11-15T12:40:27;1.00;;;0.90;;
56419;SDS011;42323;52.170;7.538;2022-11-15T12:45:37;2.55;;;1.02;;
56419;SDS011;42323;52.170;7.538;2022-11-15T12:58:51;1.42;;;0.80;;
56419;SDS011;42323;52.170;7.538;2022-11-15T13:19:59;2.22;;;0.90;;
56419;SDS011;42323;52.170;7.538;2022-11-15T13:22:27;2.17;;;0.80;;
56419;SDS011;42323;52.170;7.538;2022-11-15T13:25:17;1.52;;;0.88;;
56419;SDS011;42323;52.170;7.538;2022-11-15T13:27:54;1.38;;;0.70;;
56419;SDS011;42323;52.170;7.538;2022-11-15T13:30:28;2.05;;;0.73;;
56419;SDS011;42323;52.170;7.538;2022-11-15T13:32:58;1.23;;;0.80;;
56419;SDS011;42323;52.170;7.538;2022-11-15T13:35:34;1.10;;;0.80;;
56419;SDS011;42323;52.170;7.538;2022-11-15T13:38:11;2.00;;;1.08;;
56419;SDS011;42323;52.170;7.538;2022-11-15T13:40:45;1.42;;;1.00;;
56419;SDS011;42323;52.170;7.538;2022-11-15T13:56:48;2.35;;;1.13;;
56419;SDS011;42323;52.170;7.538;2022-11-15T13:59:28;1.48;;;0.90;;
56419;SDS011;42323;52.170;7.538;2022-11-15T14:01:58;4.55;;;0.90;;
56419;SDS011;42323;52.170;7.538;2022-11-15T14:04:29;2.30;;;1.05;;
56419;SDS011;42323;52.170;7.538;2022-11-15T14:07:00;1.73;;;0.90;;
56419;SDS011;42323;52.170;7.538;2022-11-15T14:09:30;1.95;;;1.00;;
56419;SDS011;42323;52.170;7.538;2022-11-15T14:11:59;1.17;;;0.80;;
56419;SDS011;42323;52.170;7.538;2022-11-15T14:14:28;2.70;;;1.25;;
56419;SDS011;42323;52.170;7.538;2022-11-15T14:16:59;2.80;;;1.02;;
56419;SDS011;42323;52.170;7.538;2022-11-15T14:24:36;1.13;;;0.85;;
56419;SDS011;42323;52.170;7.538;2022-11-15T14:30:02;3.58;;;1.30;;
56419;SDS011;42323;52.170;7.538;2022-11-15T14:32:38;2.30;;;1.00;;
56419;SDS011;42323;52.170;7.538;2022-11-15T14:35:18;2.28;;;1.20;;
56419;SDS011;42323;52.170;7.538;2022-11-15T14:37:47;3.55;;;1.20;;
56419;SDS011;42323;52.170;7.538;2022-11-15T14:40:18;1.08;;;0.80;;
56419;SDS011;42323;52.170;7.538;2022-11-15T14:42:49;2.70;;;1.50;;
56419;SDS011;42323;52.170;7.538;2022-11-15T14:45:17;1.83;;;0.82;;
56419;SDS011;42323;52.170;7.538;2022-11-15T14:47:46;1.30;;;0.90;;
56419;SDS011;42323;52.170;7.538;2022-11-15T14:50:17;1.38;;;0.98;;
56419;SDS011;42323;52.170;7.538;2022-11-15T14:52:45;1.38;;;1.00;;
56419;SDS011;42323;52.170;7.538;2022-11-15T14:57:40;1.90;;;1.30;;
56419;SDS011;42323;52.170;7.538;2022-11-15T15:00:07;2.42;;;1.27;;
56419;SDS011;42323;52.170;7.538;2022-11-15T15:02:35;2.05;;;1.17;;
56419;SDS011;42323;52.170;7.538;2022-11-15T15:05:07;1.50;;;1.20;;
56419;SDS011;42323;52.170;7.538;2022-11-15T15:07:47;3.58;;;1.33;;
56419;SDS011;42323;52.170;7.538;2022-11-15T15:10:15;2.55;;;1.92;;
56419;SDS011;42323;52.170;7.538;2022-11-15T15:13:02;2.45;;;1.02;;
56419;SDS011;42323;52.170;7.538;2022-11-15T15:15:37;4.00;;;2.00;;
56419;SDS011;42323;52.170;7.538;2022-11-15T15:18:04;3.08;;;1.38;;
56419;SDS011;42323;52.170;7.538;2022-11-15T15:20:32;1.90;;;1.40;;
56419;SDS011;42323;52.170;7.538;2022-11-15T15:22:59;3.22;;;1.73;;
56419;SDS011;42323;52.170;7.538;2022-11-15T15:25:27;3.05;;;1.85;;
56419;SDS011;42323;52.170;7.538;2022-11-15T15:30:28;3.53;;;1.38;;
56419;SDS011;42323;52.170;7.538;2022-11-15T15:32:56;4.05;;;1.90;;
56419;SDS011;42323;52.170;7.538;2022-11-15T15:35:24;3.42;;;1.70;;
56419;SDS011;42323;52.170;7.538;2022-11-15T15:37:56;3.80;;;1.80;;
56419;SDS011;42323;52.170;7.538;2022-11-15T15:40:23;4.03;;;1.95;;
56419;SDS011;42323;52.170;7.538;2022-11-15T15:42:51;3.60;;;1.90;;
56419;SDS011;42323;52.170;7.538;2022-11-15T15:45:18;4.45;;;1.58;;
56419;SDS011;42323;52.170;7.538;2022-11-15T15:47:45;2.85;;;1.88;;
56419;SDS011;42323;52.170;7.538;2022-11-15T15:50:26;5.70;;;2.40;;
56419;SDS011;42323;52.170;7.538;2022-11-15T15:52:55;5.63;;;3.47;;
56419;SDS011;42323;52.170;7.538;2022-11-15T15:55:24;5.65;;;3.08;;
56419;SDS011;42323;52.170;7.538;2022-11-15T15:57:54;4.57;;;2.65;;
56419;SDS011;42323;52.170;7.538;2022-11-15T16:00:22;3.83;;;2.40;;
56419;SDS011;42323;52.170;7.538;2022-11-15T16:02:51;3.95;;;2.60;;
56419;SDS011;42323;52.170;7.538;2022-11-15T16:05:19;4.55;;;2.70;;
56419;SDS011;42323;52.170;7.538;2022-11-15T16:07:46;4.07;;;3.00;;
56419;SDS011;42323;52.170;7.538;2022-11-15T16:12:46;6.15;;;3.00;;
56419;SDS011;42323;52.170;7.538;2022-11-15T16:15:13;4.13;;;2.65;;
56419;SDS011;42323;52.170;7.538;2022-11-15T16:17:41;5.00;;;2.90;;
56419;SDS011;42323;52.170;7.538;2022-11-15T16:20:23;5.10;;;2.85;;
56419;SDS011;42323;52.170;7.538;2022-11-15T16:22:50;5.15;;;3.05;;
56419;SDS011;42323;52.170;7.538;2022-11-15T16:25:16;6.00;;;3.58;;
56419;SDS011;42323;52.170;7.538;2022-11-15T16:27:43;6.65;;;3.75;;
56419;SDS011;42323;52.170;7.538;2022-11-15T16:30:14;8.43;;;4.38;;
56419;SDS011;42323;52.170;7.538;2022-11-15T16:32:46;10.48;;;4.50;;
56419;SDS011;42323;52.170;7.538;2022-11-15T16:35:14;8.70;;;3.75;;
56419;SDS011;42323;52.170;7.538;2022-11-15T16:37:42;9.93;;;4.45;;
56419;SDS011;42323;52.170;7.538;2022-11-15T16:40:25;7.05;;;3.38;;
56419;SDS011;42323;52.170;7.538;2022-11-15T16:42:52;4.00;;;2.85;;
56419;SDS011;42323;52.170;7.538;2022-11-15T16:45:19;3.22;;;2.50;;
56419;SDS011;42323;52.170;7.538;2022-11-15T16:47:46;3.50;;;2.58;;
56419;SDS011;42323;52.170;7.538;2022-11-15T16:52:54;5.43;;;2.45;;
56419;SDS011;42323;52.170;7.538;2022-11-15T16:55:23;4.53;;;2.30;;
56419;SDS011;42323;52.170;7.538;2022-11-15T16:57:51;4.70;;;3.10;;
56419;SDS011;42323;52.170;7.538;2022-11-15T17:00:18;3.13;;;2.30;;
56419;SDS011;42323;52.170;7.538;2022-11-15T17:02:47;4.47;;;2.25;;
56419;SDS011;42323;52.170;7.538;2022-11-15T17:05:15;3.58;;;2.10;;
56419;SDS011;42323;52.170;7.538;2022-11-15T17:07:46;4.25;;;2.15;;
56419;SDS011;42323;52.170;7.538;2022-11-15T17:10:23;4.13;;;2.35;;
56419;SDS011;42323;52.170;7.538;2022-11-15T17:12:51;3.67;;;2.20;;
56419;SDS011;42323;52.170;7.538;2022-11-15T17:15:20;5.38;;;2.40;;
56419;SDS011;42323;52.170;7.538;2022-11-15T17:17:50;2.80;;;2.40;;
56419;SDS011;42323;52.170;7.538;2022-11-15T17:20:20;3.30;;;2.40;;
56419;SDS011;42323;52.170;7.538;2022-11-15T17:22:49;2.75;;;2.20;;
56419;SDS011;42323;52.170;7.538;2022-11-15T17:25:16;4.35;;;2.72;;
56419;SDS011;42323;52.170;7.538;2022-11-15T17:27:43;3.92;;;2.42;;
56419;SDS011;42323;52.170;7.538;2022-11-15T17:30:11;3.10;;;2.40;;
56419;SDS011;42323;52.170;7.538;2022-11-15T17:32:40;4.55;;;2.75;;
56419;SDS011;42323;52.170;7.538;2022-11-15T17:35:08;4.55;;;2.95;;
56419;SDS011;42323;52.170;7.538;2022-11-15T17:37:41;4.93;;;2.65;;
56419;SDS011;42323;52.170;7.538;2022-11-15T17:40:08;6.22;;;3.20;;
56419;SDS011;42323;52.170;7.538;2022-11-15T17:42:35;3.40;;;2.42;;
56419;SDS011;42323;52.170;7.538;2022-11-15T17:45:02;4.00;;;2.50;;
56419;SDS011;42323;52.170;7.538;2022-11-15T17:47:35;3.40;;;2.40;;